sensor_id;sensor_type;location;lat;lon;timestamp;P1;durP1;ratioP1;P2;durP2;ratioP2
323;SDS011;149;51.094;17.002;2023-08-06T00:00:00;13.50;;;12.47;;
323;SDS011;149;51.094;17.002;2023-08-06T00:02:28;13.73;;;12.53;;
323;SDS011;149;51.094;17.002;2023-08-06T00:04:55;13.57;;;12.43;;
323;SDS011;149;51.094;17.002;2023-08-06T00:07:22;12.97;;;11.80;;
323;SDS011;149;51.094;17.002;2023-08-06T00:09:51;11.37;;;10.40;;
323;SDS011;149;51.094;17.002;2023-08-06T00:12:18;11.70;;;10.80;;
323;SDS011;149;51.094;17.002;2023-08-06T00:14:49;11.50;;;10.50;;
323;SDS011;149;51.094;17.002;2023-08-06T00:17:17;11.80;;;10.80;;
323;SDS011;149;51.094;17.002;2023-08-06T00:19:44;10.17;;;9.37;;
323;SDS011;149;51.094;17.002;2023-08-06T00:22:11;10.27;;;9.47;;
323;SDS011;149;51.094;17.002;2023-08-06T00:24:38;9.10;;;8.40;;
323;SDS011;149;51.094;17.002;2023-08-06T00:27:05;9.13;;;8.43;;
323;SDS011;149;51.094;17.002;2023-08-06T00:29:32;9.47;;;8.67;;
323;SDS011;149;51.094;17.002;2023-08-06T00:31:59;9.70;;;9.00;;
323;SDS011;149;51.094;17.002;2023-08-06T00:34:26;9.30;;;8.53;;
323;SDS011;149;51.094;17.002;2023-08-06T00:36:56;10.03;;;7.97;;
323;SDS011;149;51.094;17.002;2023-08-06T00:39:23;9.27;;;8.53;;
323;SDS011;149;51.094;17.002;2023-08-06T00:41:50;8.33;;;7.70;;
323;SDS011;149;51.094;17.002;2023-08-06T00:44:17;7.50;;;6.90;;
323;SDS011;149;51.094;17.002;2023-08-06T00:46:44;7.53;;;6.83;;
323;SDS011;149;51.094;17.002;2023-08-06T00:49:11;7.93;;;7.33;;
323;SDS011;149;51.094;17.002;2023-08-06T00:51:38;9.80;;;9.00;;
323;SDS011;149;51.094;17.002;2023-08-06T00:54:05;8.20;;;7.50;;
323;SDS011;149;51.094;17.002;2023-08-06T00:56:33;9.50;;;8.70;;
323;SDS011;149;51.094;17.002;2023-08-06T00:59:03;7.80;;;7.20;;
323;SDS011;149;51.094;17.002;2023-08-06T01:01:32;8.03;;;7.43;;
323;SDS011;149;51.094;17.002;2023-08-06T01:03:59;8.13;;;7.43;;
323;SDS011;149;51.094;17.002;2023-08-06T01:06:48;7.83;;;7.23;;
323;SDS011;149;51.094;17.002;2023-08-06T01:09:34;8.67;;;7.83;;
323;SDS011;149;51.094;17.002;2023-08-06T01:12:25;6.53;;;6.03;;
323;SDS011;149;51.094;17.002;2023-08-06T01:15:16;7.80;;;7.20;;
323;SDS011;149;51.094;17.002;2023-08-06T01:17:47;7.90;;;7.20;;
323;SDS011;149;51.094;17.002;2023-08-06T01:20:15;7.10;;;6.50;;
323;SDS011;149;51.094;17.002;2023-08-06T01:22:44;6.17;;;5.67;;
323;SDS011;149;51.094;17.002;2023-08-06T01:25:12;6.37;;;5.90;;
323;SDS011;149;51.094;17.002;2023-08-06T01:27:49;7.00;;;6.40;;
323;SDS011;149;51.094;17.002;2023-08-06T01:30:17;7.30;;;6.80;;
323;SDS011;149;51.094;17.002;2023-08-06T01:32:55;7.03;;;6.43;;
323;SDS011;149;51.094;17.002;2023-08-06T01:35:30;5.70;;;5.30;;
323;SDS011;149;51.094;17.002;2023-08-06T01:37:59;5.37;;;4.83;;
323;SDS011;149;51.094;17.002;2023-08-06T01:40:30;5.40;;;4.97;;
323;SDS011;149;51.094;17.002;2023-08-06T01:42:58;6.87;;;6.37;;
323;SDS011;149;51.094;17.002;2023-08-06T01:45:25;6.27;;;5.77;;
323;SDS011;149;51.094;17.002;2023-08-06T01:47:52;5.97;;;5.57;;
323;SDS011;149;51.094;17.002;2023-08-06T01:50:20;6.10;;;5.60;;
323;SDS011;149;51.094;17.002;2023-08-06T01:52:47;5.40;;;5.00;;
323;SDS011;149;51.094;17.002;2023-08-06T01:55:14;6.03;;;5.43;;
323;SDS011;149;51.094;17.002;2023-08-06T01:57:41;15.33;;;5.73;;
323;SDS011;149;51.094;17.002;2023-08-06T02:00:08;8.27;;;5.30;;
323;SDS011;149;51.094;17.002;2023-08-06T02:02:35;6.37;;;5.77;;
323;SDS011;149;51.094;17.002;2023-08-06T02:05:02;9.20;;;5.73;;
323;SDS011;149;51.094;17.002;2023-08-06T02:07:30;6.33;;;5.00;;
323;SDS011;149;51.094;17.002;2023-08-06T02:09:57;5.03;;;4.63;;
323;SDS011;149;51.094;17.002;2023-08-06T02:12:24;6.13;;;5.53;;
323;SDS011;149;51.094;17.002;2023-08-06T02:14:51;5.67;;;5.17;;
323;SDS011;149;51.094;17.002;2023-08-06T02:17:17;5.33;;;4.83;;
323;SDS011;149;51.094;17.002;2023-08-06T02:19:44;5.30;;;4.20;;
323;SDS011;149;51.094;17.002;2023-08-06T02:22:11;3.80;;;3.50;;
323;SDS011;149;51.094;17.002;2023-08-06T02:24:38;3.90;;;3.60;;
323;SDS011;149;51.094;17.002;2023-08-06T02:27:08;3.20;;;3.00;;
323;SDS011;149;51.094;17.002;2023-08-06T02:29:35;3.50;;;3.20;;
323;SDS011;149;51.094;17.002;2023-08-06T02:32:06;3.33;;;3.13;;
323;SDS011;149;51.094;17.002;2023-08-06T02:34:34;2.90;;;2.70;;
323;SDS011;149;51.094;17.002;2023-08-06T02:37:01;4.20;;;2.53;;
323;SDS011;149;51.094;17.002;2023-08-06T02:39:27;4.38;;;3.58;;
323;SDS011;149;51.094;17.002;2023-08-06T02:41:55;3.00;;;2.80;;
323;SDS011;149;51.094;17.002;2023-08-06T02:44:22;2.70;;;2.50;;
323;SDS011;149;51.094;17.002;2023-08-06T02:46:53;2.90;;;2.53;;
323;SDS011;149;51.094;17.002;2023-08-06T02:49:21;2.27;;;2.17;;
323;SDS011;149;51.094;17.002;2023-08-06T02:51:48;2.80;;;2.60;;
323;SDS011;149;51.094;17.002;2023-08-06T02:54:18;2.40;;;1.83;;
323;SDS011;149;51.094;17.002;2023-08-06T02:56:45;2.23;;;2.03;;
323;SDS011;149;51.094;17.002;2023-08-06T02:59:13;5.50;;;1.90;;
323;SDS011;149;51.094;17.002;2023-08-06T03:01:40;1.77;;;1.67;;
323;SDS011;149;51.094;17.002;2023-08-06T03:04:08;2.73;;;2.20;;
323;SDS011;149;51.094;17.002;2023-08-06T03:06:38;2.30;;;2.20;;
323;SDS011;149;51.094;17.002;2023-08-06T03:09:05;1.80;;;1.70;;
323;SDS011;149;51.094;17.002;2023-08-06T03:11:32;2.50;;;2.30;;
323;SDS011;149;51.094;17.002;2023-08-06T03:13:59;2.37;;;2.27;;
323;SDS011;149;51.094;17.002;2023-08-06T03:16:31;1.67;;;1.57;;
323;SDS011;149;51.094;17.002;2023-08-06T03:19:01;2.75;;;1.75;;
323;SDS011;149;51.094;17.002;2023-08-06T03:21:30;2.10;;;1.90;;
323;SDS011;149;51.094;17.002;2023-08-06T03:23:57;1.97;;;1.80;;
323;SDS011;149;51.094;17.002;2023-08-06T03:26:24;1.60;;;1.50;;
323;SDS011;149;51.094;17.002;2023-08-06T03:28:51;1.63;;;1.53;;
323;SDS011;149;51.094;17.002;2023-08-06T03:31:18;2.10;;;2.00;;
323;SDS011;149;51.094;17.002;2023-08-06T03:33:45;2.30;;;1.30;;
323;SDS011;149;51.094;17.002;2023-08-06T03:36:15;1.50;;;1.40;;
323;SDS011;149;51.094;17.002;2023-08-06T03:38:41;2.00;;;1.90;;
323;SDS011;149;51.094;17.002;2023-08-06T03:41:12;1.65;;;1.55;;
323;SDS011;149;51.094;17.002;2023-08-06T03:43:47;1.63;;;1.53;;
323;SDS011;149;51.094;17.002;2023-08-06T03:46:15;1.80;;;1.70;;
323;SDS011;149;51.094;17.002;2023-08-06T03:48:42;1.80;;;1.37;;
323;SDS011;149;51.094;17.002;2023-08-06T03:51:09;1.50;;;1.40;;
323;SDS011;149;51.094;17.002;2023-08-06T03:53:38;1.97;;;1.63;;
323;SDS011;149;51.094;17.002;2023-08-06T03:56:07;1.20;;;1.10;;
323;SDS011;149;51.094;17.002;2023-08-06T03:58:38;0.93;;;0.93;;
323;SDS011;149;51.094;17.002;2023-08-06T04:01:08;1.47;;;1.37;;
323;SDS011;149;51.094;17.002;2023-08-06T04:03:38;1.43;;;1.33;;
323;SDS011;149;51.094;17.002;2023-08-06T04:06:08;1.40;;;1.30;;
323;SDS011;149;51.094;17.002;2023-08-06T04:08:39;1.43;;;1.33;;
323;SDS011;149;51.094;17.002;2023-08-06T04:11:11;1.40;;;1.30;;
323;SDS011;149;51.094;17.002;2023-08-06T04:13:42;1.50;;;1.40;;
323;SDS011;149;51.094;17.002;2023-08-06T04:16:18;1.60;;;1.50;;
323;SDS011;149;51.094;17.002;2023-08-06T04:18:47;1.70;;;1.60;;
323;SDS011;149;51.094;17.002;2023-08-06T04:21:15;3.67;;;1.35;;
323;SDS011;149;51.094;17.002;2023-08-06T04:23:45;1.38;;;1.27;;
323;SDS011;149;51.094;17.002;2023-08-06T04:26:14;1.93;;;1.50;;
323;SDS011;149;51.094;17.002;2023-08-06T04:28:41;2.10;;;1.90;;
323;SDS011;149;51.094;17.002;2023-08-06T04:31:09;1.30;;;1.25;;
323;SDS011;149;51.094;17.002;2023-08-06T04:33:35;1.53;;;1.10;;
323;SDS011;149;51.094;17.002;2023-08-06T04:36:03;1.40;;;1.30;;
323;SDS011;149;51.094;17.002;2023-08-06T04:38:30;1.53;;;1.43;;
323;SDS011;149;51.094;17.002;2023-08-06T04:40:58;1.40;;;1.30;;
323;SDS011;149;51.094;17.002;2023-08-06T04:43:25;1.80;;;1.70;;
323;SDS011;149;51.094;17.002;2023-08-06T04:45:53;1.92;;;1.80;;
323;SDS011;149;51.094;17.002;2023-08-06T04:48:21;2.50;;;1.30;;
323;SDS011;149;51.094;17.002;2023-08-06T04:50:49;1.07;;;1.07;;
323;SDS011;149;51.094;17.002;2023-08-06T04:53:16;1.55;;;1.45;;
323;SDS011;149;51.094;17.002;2023-08-06T04:55:44;1.80;;;1.70;;
323;SDS011;149;51.094;17.002;2023-08-06T04:58:13;1.50;;;1.40;;
323;SDS011;149;51.094;17.002;2023-08-06T05:00:40;1.63;;;1.53;;
323;SDS011;149;51.094;17.002;2023-08-06T05:03:07;1.87;;;1.60;;
323;SDS011;149;51.094;17.002;2023-08-06T05:05:34;1.50;;;1.40;;
323;SDS011;149;51.094;17.002;2023-08-06T05:08:01;3.65;;;2.03;;
323;SDS011;149;51.094;17.002;2023-08-06T05:10:28;2.90;;;2.03;;
323;SDS011;149;51.094;17.002;2023-08-06T05:12:55;1.70;;;1.60;;
323;SDS011;149;51.094;17.002;2023-08-06T05:15:25;1.90;;;1.80;;
323;SDS011;149;51.094;17.002;2023-08-06T05:17:51;1.90;;;1.80;;
323;SDS011;149;51.094;17.002;2023-08-06T05:20:20;1.30;;;1.20;;
323;SDS011;149;51.094;17.002;2023-08-06T05:22:50;1.43;;;1.33;;
323;SDS011;149;51.094;17.002;2023-08-06T05:25:20;1.70;;;1.60;;
323;SDS011;149;51.094;17.002;2023-08-06T05:27:47;1.77;;;1.67;;
323;SDS011;149;51.094;17.002;2023-08-06T05:30:14;1.42;;;1.33;;
323;SDS011;149;51.094;17.002;2023-08-06T05:32:41;1.47;;;1.37;;
323;SDS011;149;51.094;17.002;2023-08-06T05:35:08;1.30;;;1.23;;
323;SDS011;149;51.094;17.002;2023-08-06T05:37:52;1.30;;;1.20;;
323;SDS011;149;51.094;17.002;2023-08-06T05:40:19;1.80;;;1.65;;
323;SDS011;149;51.094;17.002;2023-08-06T05:42:46;1.23;;;1.13;;
323;SDS011;149;51.094;17.002;2023-08-06T05:45:13;1.48;;;1.38;;
323;SDS011;149;51.094;17.002;2023-08-06T05:47:40;2.85;;;1.27;;
323;SDS011;149;51.094;17.002;2023-08-06T05:50:09;1.40;;;1.30;;
323;SDS011;149;51.094;17.002;2023-08-06T05:52:36;1.35;;;1.25;;
323;SDS011;149;51.094;17.002;2023-08-06T05:55:03;2.93;;;1.80;;
323;SDS011;149;51.094;17.002;2023-08-06T05:57:33;1.17;;;1.10;;
323;SDS011;149;51.094;17.002;2023-08-06T06:00:00;3.83;;;1.90;;
323;SDS011;149;51.094;17.002;2023-08-06T06:02:27;2.83;;;1.50;;
323;SDS011;149;51.094;17.002;2023-08-06T06:04:54;2.38;;;1.80;;
323;SDS011;149;51.094;17.002;2023-08-06T06:07:21;1.52;;;1.42;;
323;SDS011;149;51.094;17.002;2023-08-06T06:09:48;1.35;;;1.23;;
323;SDS011;149;51.094;17.002;2023-08-06T06:12:15;1.33;;;1.23;;
323;SDS011;149;51.094;17.002;2023-08-06T06:14:46;1.13;;;1.02;;
323;SDS011;149;51.094;17.002;2023-08-06T06:17:13;0.93;;;0.93;;
323;SDS011;149;51.094;17.002;2023-08-06T06:19:40;0.93;;;0.90;;
323;SDS011;149;51.094;17.002;2023-08-06T06:22:07;2.05;;;1.45;;
323;SDS011;149;51.094;17.002;2023-08-06T06:24:35;2.07;;;1.37;;
323;SDS011;149;51.094;17.002;2023-08-06T06:27:02;1.90;;;1.73;;
323;SDS011;149;51.094;17.002;2023-08-06T06:29:29;1.63;;;1.37;;
323;SDS011;149;51.094;17.002;2023-08-06T06:31:56;2.08;;;1.63;;
323;SDS011;149;51.094;17.002;2023-08-06T06:34:27;1.30;;;1.20;;
323;SDS011;149;51.094;17.002;2023-08-06T06:36:54;1.65;;;1.55;;
323;SDS011;149;51.094;17.002;2023-08-06T06:39:27;2.93;;;1.27;;
323;SDS011;149;51.094;17.002;2023-08-06T06:41:54;1.20;;;1.20;;
323;SDS011;149;51.094;17.002;2023-08-06T06:44:21;1.48;;;1.38;;
323;SDS011;149;51.094;17.002;2023-08-06T06:46:48;1.17;;;1.15;;
323;SDS011;149;51.094;17.002;2023-08-06T06:49:15;1.70;;;1.60;;
323;SDS011;149;51.094;17.002;2023-08-06T06:51:44;2.10;;;1.00;;
323;SDS011;149;51.094;17.002;2023-08-06T06:54:11;1.90;;;1.67;;
323;SDS011;149;51.094;17.002;2023-08-06T06:56:43;1.27;;;0.93;;
323;SDS011;149;51.094;17.002;2023-08-06T06:59:11;1.43;;;1.33;;
323;SDS011;149;51.094;17.002;2023-08-06T07:01:46;1.23;;;1.13;;
323;SDS011;149;51.094;17.002;2023-08-06T07:04:14;1.20;;;1.10;;
323;SDS011;149;51.094;17.002;2023-08-06T07:06:41;1.13;;;1.03;;
323;SDS011;149;51.094;17.002;2023-08-06T07:09:08;0.90;;;0.90;;
323;SDS011;149;51.094;17.002;2023-08-06T07:11:39;1.40;;;1.30;;
323;SDS011;149;51.094;17.002;2023-08-06T07:14:13;1.13;;;1.03;;
323;SDS011;149;51.094;17.002;2023-08-06T07:16:41;1.60;;;1.50;;
323;SDS011;149;51.094;17.002;2023-08-06T07:19:08;1.27;;;1.20;;
323;SDS011;149;51.094;17.002;2023-08-06T07:21:35;2.13;;;1.60;;
323;SDS011;149;51.094;17.002;2023-08-06T07:24:09;1.60;;;1.50;;
323;SDS011;149;51.094;17.002;2023-08-06T07:26:36;1.57;;;1.47;;
323;SDS011;149;51.094;17.002;2023-08-06T07:29:04;1.70;;;1.57;;
323;SDS011;149;51.094;17.002;2023-08-06T07:31:31;1.40;;;1.30;;
323;SDS011;149;51.094;17.002;2023-08-06T07:34:02;1.97;;;1.87;;
323;SDS011;149;51.094;17.002;2023-08-06T07:36:29;1.80;;;1.70;;
323;SDS011;149;51.094;17.002;2023-08-06T07:38:58;2.38;;;2.20;;
323;SDS011;149;51.094;17.002;2023-08-06T07:41:25;2.13;;;2.03;;
323;SDS011;149;51.094;17.002;2023-08-06T07:43:52;3.50;;;2.90;;
323;SDS011;149;51.094;17.002;2023-08-06T07:46:20;2.83;;;2.63;;
323;SDS011;149;51.094;17.002;2023-08-06T07:48:50;3.50;;;3.30;;
323;SDS011;149;51.094;17.002;2023-08-06T07:51:28;4.23;;;3.93;;
323;SDS011;149;51.094;17.002;2023-08-06T07:53:55;3.33;;;3.07;;
323;SDS011;149;51.094;17.002;2023-08-06T07:56:27;4.57;;;4.27;;
323;SDS011;149;51.094;17.002;2023-08-06T07:58:55;3.70;;;3.40;;
323;SDS011;149;51.094;17.002;2023-08-06T08:01:22;3.80;;;3.60;;
323;SDS011;149;51.094;17.002;2023-08-06T08:03:49;3.33;;;3.13;;
323;SDS011;149;51.094;17.002;2023-08-06T08:06:18;4.80;;;3.97;;
323;SDS011;149;51.094;17.002;2023-08-06T08:09:00;3.90;;;3.70;;
323;SDS011;149;51.094;17.002;2023-08-06T08:11:29;5.03;;;4.73;;
323;SDS011;149;51.094;17.002;2023-08-06T08:13:56;4.23;;;4.03;;
323;SDS011;149;51.094;17.002;2023-08-06T08:16:23;4.67;;;4.37;;
323;SDS011;149;51.094;17.002;2023-08-06T08:18:50;4.20;;;4.00;;
323;SDS011;149;51.094;17.002;2023-08-06T08:21:16;3.97;;;3.67;;
323;SDS011;149;51.094;17.002;2023-08-06T08:23:44;4.32;;;4.03;;
323;SDS011;149;51.094;17.002;2023-08-06T08:26:11;4.53;;;4.23;;
323;SDS011;149;51.094;17.002;2023-08-06T08:28:38;5.03;;;4.73;;
323;SDS011;149;51.094;17.002;2023-08-06T08:31:08;4.50;;;4.20;;
323;SDS011;149;51.094;17.002;2023-08-06T08:33:40;3.87;;;3.67;;
323;SDS011;149;51.094;17.002;2023-08-06T08:36:09;3.47;;;3.27;;
323;SDS011;149;51.094;17.002;2023-08-06T08:38:37;3.20;;;3.00;;
323;SDS011;149;51.094;17.002;2023-08-06T08:41:04;3.00;;;2.80;;
323;SDS011;149;51.094;17.002;2023-08-06T08:43:32;2.70;;;2.60;;
323;SDS011;149;51.094;17.002;2023-08-06T08:46:00;2.27;;;2.17;;
323;SDS011;149;51.094;17.002;2023-08-06T08:48:28;3.30;;;3.10;;
323;SDS011;149;51.094;17.002;2023-08-06T08:50:56;2.67;;;2.47;;
323;SDS011;149;51.094;17.002;2023-08-06T08:53:24;2.80;;;2.60;;
323;SDS011;149;51.094;17.002;2023-08-06T08:55:53;2.30;;;2.20;;
323;SDS011;149;51.094;17.002;2023-08-06T08:58:24;2.30;;;2.20;;
323;SDS011;149;51.094;17.002;2023-08-06T09:00:51;2.10;;;2.00;;
323;SDS011;149;51.094;17.002;2023-08-06T09:03:21;2.33;;;2.13;;
323;SDS011;149;51.094;17.002;2023-08-06T09:05:49;2.20;;;2.10;;
323;SDS011;149;51.094;17.002;2023-08-06T09:08:21;1.50;;;1.40;;
323;SDS011;149;51.094;17.002;2023-08-06T09:10:53;2.13;;;2.03;;
323;SDS011;149;51.094;17.002;2023-08-06T09:13:22;2.73;;;2.17;;
323;SDS011;149;51.094;17.002;2023-08-06T09:15:50;2.17;;;2.07;;
323;SDS011;149;51.094;17.002;2023-08-06T09:18:27;2.40;;;2.27;;
323;SDS011;149;51.094;17.002;2023-08-06T09:20:55;2.67;;;2.47;;
323;SDS011;149;51.094;17.002;2023-08-06T09:23:28;2.30;;;2.03;;
323;SDS011;149;51.094;17.002;2023-08-06T09:26:00;2.20;;;2.10;;
323;SDS011;149;51.094;17.002;2023-08-06T09:28:36;3.13;;;2.70;;
323;SDS011;149;51.094;17.002;2023-08-06T09:31:10;4.03;;;2.40;;
323;SDS011;149;51.094;17.002;2023-08-06T09:33:38;2.50;;;1.83;;
323;SDS011;149;51.094;17.002;2023-08-06T09:36:09;1.83;;;1.73;;
323;SDS011;149;51.094;17.002;2023-08-06T09:38:40;2.23;;;2.03;;
323;SDS011;149;51.094;17.002;2023-08-06T09:41:07;2.60;;;2.50;;
323;SDS011;149;51.094;17.002;2023-08-06T09:43:39;2.30;;;2.10;;
323;SDS011;149;51.094;17.002;2023-08-06T09:46:13;2.20;;;2.03;;
323;SDS011;149;51.094;17.002;2023-08-06T09:48:46;2.40;;;2.30;;
323;SDS011;149;51.094;17.002;2023-08-06T09:51:13;3.23;;;3.03;;
323;SDS011;149;51.094;17.002;2023-08-06T09:53:43;3.40;;;3.10;;
323;SDS011;149;51.094;17.002;2023-08-06T09:56:11;3.50;;;3.30;;
323;SDS011;149;51.094;17.002;2023-08-06T09:58:44;2.87;;;2.67;;
323;SDS011;149;51.094;17.002;2023-08-06T10:01:15;2.88;;;2.67;;
323;SDS011;149;51.094;17.002;2023-08-06T10:03:53;3.55;;;3.25;;
323;SDS011;149;51.094;17.002;2023-08-06T10:06:21;2.73;;;2.53;;
323;SDS011;149;51.094;17.002;2023-08-06T10:08:49;2.43;;;2.20;;
323;SDS011;149;51.094;17.002;2023-08-06T10:11:17;2.30;;;2.20;;
323;SDS011;149;51.094;17.002;2023-08-06T10:13:47;2.80;;;2.60;;
323;SDS011;149;51.094;17.002;2023-08-06T10:16:19;2.60;;;2.50;;
323;SDS011;149;51.094;17.002;2023-08-06T10:18:58;2.10;;;2.00;;
323;SDS011;149;51.094;17.002;2023-08-06T10:21:27;3.60;;;3.40;;
323;SDS011;149;51.094;17.002;2023-08-06T10:23:56;3.73;;;3.30;;
323;SDS011;149;51.094;17.002;2023-08-06T10:26:29;3.10;;;2.57;;
323;SDS011;149;51.094;17.002;2023-08-06T10:28:59;3.70;;;3.42;;
323;SDS011;149;51.094;17.002;2023-08-06T10:34:22;3.27;;;3.07;;
323;SDS011;149;51.094;17.002;2023-08-06T10:36:49;3.30;;;3.10;;
323;SDS011;149;51.094;17.002;2023-08-06T10:39:16;10.00;;;4.40;;
323;SDS011;149;51.094;17.002;2023-08-06T10:41:56;2.67;;;2.47;;
323;SDS011;149;51.094;17.002;2023-08-06T10:44:26;4.23;;;3.93;;
323;SDS011;149;51.094;17.002;2023-08-06T10:46:58;2.83;;;2.53;;
323;SDS011;149;51.094;17.002;2023-08-06T10:49:54;3.47;;;3.27;;
323;SDS011;149;51.094;17.002;2023-08-06T10:52:21;2.73;;;2.53;;
323;SDS011;149;51.094;17.002;2023-08-06T10:54:53;2.53;;;2.33;;
323;SDS011;149;51.094;17.002;2023-08-06T10:57:22;2.90;;;2.70;;
323;SDS011;149;51.094;17.002;2023-08-06T10:59:52;2.70;;;2.40;;
323;SDS011;149;51.094;17.002;2023-08-06T11:02:40;2.90;;;2.70;;
323;SDS011;149;51.094;17.002;2023-08-06T11:05:10;3.43;;;2.73;;
323;SDS011;149;51.094;17.002;2023-08-06T11:07:38;2.40;;;2.30;;
323;SDS011;149;51.094;17.002;2023-08-06T11:10:10;2.30;;;2.20;;
323;SDS011;149;51.094;17.002;2023-08-06T11:12:40;2.63;;;2.20;;
323;SDS011;149;51.094;17.002;2023-08-06T11:15:07;2.80;;;2.60;;
323;SDS011;149;51.094;17.002;2023-08-06T11:17:34;2.63;;;2.43;;
323;SDS011;149;51.094;17.002;2023-08-06T11:20:03;2.43;;;2.17;;
323;SDS011;149;51.094;17.002;2023-08-06T11:22:31;2.20;;;2.00;;
323;SDS011;149;51.094;17.002;2023-08-06T11:24:59;2.27;;;2.07;;
323;SDS011;149;51.094;17.002;2023-08-06T11:27:32;1.87;;;1.77;;
323;SDS011;149;51.094;17.002;2023-08-06T11:30:01;2.20;;;2.10;;
323;SDS011;149;51.094;17.002;2023-08-06T11:32:28;2.30;;;2.10;;
323;SDS011;149;51.094;17.002;2023-08-06T11:34:55;3.23;;;1.87;;
323;SDS011;149;51.094;17.002;2023-08-06T11:37:23;2.07;;;1.97;;
323;SDS011;149;51.094;17.002;2023-08-06T11:39:52;2.50;;;2.30;;
323;SDS011;149;51.094;17.002;2023-08-06T11:42:19;1.90;;;1.80;;
323;SDS011;149;51.094;17.002;2023-08-06T11:44:46;3.47;;;2.80;;
323;SDS011;149;51.094;17.002;2023-08-06T11:47:14;2.27;;;2.17;;
323;SDS011;149;51.094;17.002;2023-08-06T11:49:48;1.90;;;1.80;;
323;SDS011;149;51.094;17.002;2023-08-06T11:52:21;2.00;;;1.90;;
323;SDS011;149;51.094;17.002;2023-08-06T11:57:30;1.90;;;1.80;;
323;SDS011;149;51.094;17.002;2023-08-06T12:00:08;2.40;;;2.20;;
323;SDS011;149;51.094;17.002;2023-08-06T12:02:40;2.27;;;2.13;;
323;SDS011;149;51.094;17.002;2023-08-06T12:07:44;2.57;;;2.47;;
323;SDS011;149;51.094;17.002;2023-08-06T12:10:16;3.80;;;2.97;;
323;SDS011;149;51.094;17.002;2023-08-06T12:12:45;2.00;;;1.90;;
323;SDS011;149;51.094;17.002;2023-08-06T12:15:14;5.50;;;3.70;;
323;SDS011;149;51.094;17.002;2023-08-06T12:17:44;4.30;;;2.20;;
323;SDS011;149;51.094;17.002;2023-08-06T12:20:11;2.17;;;2.03;;
323;SDS011;149;51.094;17.002;2023-08-06T12:22:41;2.03;;;1.93;;
323;SDS011;149;51.094;17.002;2023-08-06T12:25:09;2.63;;;2.43;;
323;SDS011;149;51.094;17.002;2023-08-06T12:27:40;2.53;;;2.33;;
323;SDS011;149;51.094;17.002;2023-08-06T12:30:08;2.50;;;2.33;;
323;SDS011;149;51.094;17.002;2023-08-06T12:32:36;2.70;;;2.43;;
323;SDS011;149;51.094;17.002;2023-08-06T12:35:07;2.47;;;2.27;;
323;SDS011;149;51.094;17.002;2023-08-06T12:37:35;3.23;;;3.03;;
323;SDS011;149;51.094;17.002;2023-08-06T12:40:06;2.97;;;2.77;;
323;SDS011;149;51.094;17.002;2023-08-06T12:42:53;3.60;;;3.40;;
323;SDS011;149;51.094;17.002;2023-08-06T12:45:21;2.97;;;2.77;;
323;SDS011;149;51.094;17.002;2023-08-06T12:47:51;2.97;;;2.77;;
323;SDS011;149;51.094;17.002;2023-08-06T12:50:17;3.00;;;2.80;;
323;SDS011;149;51.094;17.002;2023-08-06T12:52:54;3.20;;;3.00;;
323;SDS011;149;51.094;17.002;2023-08-06T12:55:21;3.93;;;3.17;;
323;SDS011;149;51.094;17.002;2023-08-06T12:57:48;3.57;;;3.23;;
323;SDS011;149;51.094;17.002;2023-08-06T13:00:24;2.20;;;2.10;;
323;SDS011;149;51.094;17.002;2023-08-06T13:02:56;3.47;;;3.17;;
323;SDS011;149;51.094;17.002;2023-08-06T13:05:33;3.07;;;2.87;;
323;SDS011;149;51.094;17.002;2023-08-06T13:08:03;3.53;;;3.23;;
323;SDS011;149;51.094;17.002;2023-08-06T13:10:37;3.50;;;3.20;;
323;SDS011;149;51.094;17.002;2023-08-06T13:13:04;2.90;;;2.60;;
323;SDS011;149;51.094;17.002;2023-08-06T13:15:31;5.93;;;5.40;;
323;SDS011;149;51.094;17.002;2023-08-06T13:18:03;3.43;;;3.20;;
323;SDS011;149;51.094;17.002;2023-08-06T13:20:30;3.30;;;3.10;;
323;SDS011;149;51.094;17.002;2023-08-06T13:22:58;3.47;;;3.17;;
323;SDS011;149;51.094;17.002;2023-08-06T13:25:32;3.17;;;2.97;;
323;SDS011;149;51.094;17.002;2023-08-06T13:28:03;4.10;;;3.80;;
323;SDS011;149;51.094;17.002;2023-08-06T13:30:30;2.90;;;2.70;;
323;SDS011;149;51.094;17.002;2023-08-06T13:32:57;3.00;;;2.80;;
323;SDS011;149;51.094;17.002;2023-08-06T13:35:26;3.43;;;3.23;;
323;SDS011;149;51.094;17.002;2023-08-06T13:37:53;4.07;;;3.60;;
323;SDS011;149;51.094;17.002;2023-08-06T13:40:20;3.23;;;3.00;;
323;SDS011;149;51.094;17.002;2023-08-06T13:42:48;2.80;;;2.60;;
323;SDS011;149;51.094;17.002;2023-08-06T13:45:15;3.53;;;3.17;;
323;SDS011;149;51.094;17.002;2023-08-06T13:47:42;3.27;;;3.00;;
323;SDS011;149;51.094;17.002;2023-08-06T13:50:09;3.60;;;3.30;;
323;SDS011;149;51.094;17.002;2023-08-06T13:52:38;2.90;;;2.70;;
323;SDS011;149;51.094;17.002;2023-08-06T13:55:05;3.83;;;3.17;;
323;SDS011;149;51.094;17.002;2023-08-06T13:57:33;3.03;;;2.83;;
323;SDS011;149;51.094;17.002;2023-08-06T14:00:01;3.73;;;3.43;;
323;SDS011;149;51.094;17.002;2023-08-06T14:02:28;3.33;;;3.13;;
323;SDS011;149;51.094;17.002;2023-08-06T14:04:58;4.83;;;4.30;;
323;SDS011;149;51.094;17.002;2023-08-06T14:07:25;4.00;;;3.70;;
323;SDS011;149;51.094;17.002;2023-08-06T14:09:52;3.23;;;3.03;;
323;SDS011;149;51.094;17.002;2023-08-06T14:12:19;3.50;;;3.20;;
323;SDS011;149;51.094;17.002;2023-08-06T14:14:46;3.60;;;3.40;;
323;SDS011;149;51.094;17.002;2023-08-06T14:17:13;3.67;;;3.40;;
323;SDS011;149;51.094;17.002;2023-08-06T14:19:40;4.10;;;3.80;;
323;SDS011;149;51.094;17.002;2023-08-06T14:22:07;3.40;;;3.20;;
323;SDS011;149;51.094;17.002;2023-08-06T14:24:36;4.00;;;3.70;;
323;SDS011;149;51.094;17.002;2023-08-06T14:27:03;3.90;;;3.60;;
323;SDS011;149;51.094;17.002;2023-08-06T14:29:33;4.50;;;4.10;;
323;SDS011;149;51.094;17.002;2023-08-06T14:32:00;3.83;;;3.50;;
323;SDS011;149;51.094;17.002;2023-08-06T14:34:27;4.00;;;3.60;;
323;SDS011;149;51.094;17.002;2023-08-06T14:36:54;4.40;;;3.80;;
323;SDS011;149;51.094;17.002;2023-08-06T14:39:22;3.20;;;2.90;;
323;SDS011;149;51.094;17.002;2023-08-06T14:41:49;3.60;;;3.40;;
323;SDS011;149;51.094;17.002;2023-08-06T14:44:16;5.00;;;4.70;;
323;SDS011;149;51.094;17.002;2023-08-06T14:46:43;4.53;;;4.23;;
323;SDS011;149;51.094;17.002;2023-08-06T14:49:12;4.13;;;3.83;;
323;SDS011;149;51.094;17.002;2023-08-06T14:51:39;4.20;;;3.90;;
323;SDS011;149;51.094;17.002;2023-08-06T14:54:06;3.90;;;3.60;;
323;SDS011;149;51.094;17.002;2023-08-06T14:56:36;3.50;;;3.20;;
323;SDS011;149;51.094;17.002;2023-08-06T14:59:03;3.10;;;2.90;;
323;SDS011;149;51.094;17.002;2023-08-06T15:01:31;3.53;;;3.23;;
323;SDS011;149;51.094;17.002;2023-08-06T15:03:58;4.43;;;3.60;;
323;SDS011;149;51.094;17.002;2023-08-06T15:06:25;3.63;;;3.43;;
323;SDS011;149;51.094;17.002;2023-08-06T15:08:52;3.10;;;2.90;;
323;SDS011;149;51.094;17.002;2023-08-06T15:11:20;3.57;;;3.30;;
323;SDS011;149;51.094;17.002;2023-08-06T15:13:47;3.70;;;3.40;;
323;SDS011;149;51.094;17.002;2023-08-06T15:16:14;4.23;;;3.93;;
323;SDS011;149;51.094;17.002;2023-08-06T15:18:41;3.90;;;3.50;;
323;SDS011;149;51.094;17.002;2023-08-06T15:21:10;3.73;;;3.43;;
323;SDS011;149;51.094;17.002;2023-08-06T15:23:38;3.33;;;3.10;;
323;SDS011;149;51.094;17.002;2023-08-06T15:26:04;3.80;;;3.50;;
323;SDS011;149;51.094;17.002;2023-08-06T15:28:31;4.10;;;3.80;;
323;SDS011;149;51.094;17.002;2023-08-06T15:30:58;4.13;;;3.93;;
323;SDS011;149;51.094;17.002;2023-08-06T15:33:27;4.60;;;4.30;;
323;SDS011;149;51.094;17.002;2023-08-06T15:35:56;5.43;;;5.03;;
323;SDS011;149;51.094;17.002;2023-08-06T15:38:23;6.07;;;5.50;;
323;SDS011;149;51.094;17.002;2023-08-06T15:40:53;5.43;;;4.93;;
323;SDS011;149;51.094;17.002;2023-08-06T15:43:20;6.07;;;5.67;;
323;SDS011;149;51.094;17.002;2023-08-06T15:45:48;7.90;;;7.30;;
323;SDS011;149;51.094;17.002;2023-08-06T15:48:18;7.10;;;6.50;;